Time;durP1;ratioP1;P1;durP2;ratioP2;P2;SDS_P1;SDS_P2;PMS_P1;PMS_P2;Temp;Humidity;BMP_temperature;BMP_pressure;BME280_temperature;BME280_humidity;BME280_pressure;Samples;Min_cycle;Max_cycle;Signal;HPM_P1;HPM_P2
2023/04/01 00:01:45;;;;;;;20.25;2.95;;;9.60;99.90;;;8.68;100.00;100662.72;4206726;28;20019;-77
2023/04/01 00:03:46;;;;;;;18.20;3.45;;;9.50;99.90;;;8.65;100.00;100672.69;4218907;28;20039;-78
2023/04/01 00:05:47;;;;;;;26.10;4.22;;;9.50;99.90;;;8.56;100.00;100665.69;4209431;28;20031;-77
2023/04/01 00:07:48;;;;;;;13.60;3.85;;;9.40;99.90;;;8.71;100.00;100669.47;4214610;28;20039;-78
2023/04/01 00:09:49;;;;;;;21.80;4.13;;;9.40;99.90;;;8.54;100.00;100670.25;4207392;28;20494;-78
2023/04/01 00:11:50;;;;;;;14.25;3.05;;;9.40;99.90;;;8.53;100.00;100679.09;4219144;28;20530;-78
2023/04/01 00:13:51;;;;;;;27.02;3.58;;;9.30;99.90;;;8.44;100.00;100672.91;4219946;28;20024;-78
2023/04/01 00:15:53;;;;;;;26.48;6.65;;;9.30;99.90;;;8.51;100.00;100683.69;4220037;28;20031;-77
2023/04/01 00:17:54;;;;;;;27.88;4.65;;;9.30;99.90;;;8.56;100.00;100691.97;4218858;28;20031;-78
2023/04/01 00:19:56;;;;;;;21.90;4.18;;;9.30;99.90;;;8.66;100.00;100690.94;4226063;28;20114;-78
2023/04/01 00:21:58;;;;;;;23.20;3.55;;;9.30;99.90;;;8.70;100.00;100675.72;4215795;28;20020;-78
2023/04/01 00:23:59;;;;;;;23.90;4.30;;;9.40;99.90;;;8.60;100.00;100674.94;4203121;28;20087;-78
2023/04/01 00:26:02;;;;;;;25.08;5.53;;;9.40;99.90;;;8.82;100.00;100685.06;4203103;28;20029;-78
2023/04/01 00:28:03;;;;;;;27.03;4.23;;;9.40;99.90;;;8.73;100.00;100676.25;4201778;28;20017;-77
2023/04/01 00:30:05;;;;;;;23.45;3.85;;;9.50;99.90;;;8.74;100.00;100679.72;4201891;28;20031;-78
2023/04/01 00:32:06;;;;;;;20.33;4.35;;;9.50;99.90;;;8.75;100.00;100671.66;4201750;28;20107;-78
2023/04/01 00:34:07;;;;;;;29.40;5.63;;;9.50;99.90;;;8.60;100.00;100667.84;4201973;28;20420;-77
2023/04/01 00:36:15;;;;;;;21.77;4.70;;;9.40;99.90;;;8.54;100.00;100667.63;4203018;28;20051;-78
2023/04/01 00:38:16;;;;;;;26.58;5.22;;;9.40;99.90;;;8.46;100.00;100670.97;4201786;28;20584;-78
2023/04/01 00:40:43;;;;;;;17.75;4.65;;;9.30;99.90;;;8.42;100.00;100672.25;4202777;28;20491;-77
2023/04/01 00:42:44;;;;;;;24.83;4.60;;;9.30;99.90;;;8.48;100.00;100666.41;4194950;28;20075;-78
2023/04/01 00:44:52;;;;;;;30.25;4.55;;;9.30;99.90;;;8.61;100.00;100672.16;4201784;28;20119;-78
2023/04/01 00:46:53;;;;;;;26.75;3.50;;;9.30;99.90;;;8.67;100.00;100665.47;4202699;28;20365;-78
2023/04/01 00:48:56;;;;;;;27.63;4.45;;;9.40;99.90;;;8.61;100.00;100673.94;4201657;28;20561;-78
2023/04/01 00:51:12;;;;;;;20.27;4.28;;;9.40;99.90;;;8.61;100.00;100673.94;4201692;28;20420;-78
2023/04/01 00:53:14;;;;;;;25.20;4.40;;;9.30;99.90;;;8.77;100.00;100669.72;4201367;28;20028;-78
2023/04/01 00:55:19;;;;;;;25.27;5.63;;;9.40;99.90;;;8.72;100.00;100671.94;4207258;28;20024;-78
2023/04/01 00:57:30;;;;;;;19.27;4.45;;;9.40;99.90;;;8.60;100.00;100669.69;4210465;28;20372;-77
2023/04/01 00:59:45;;;;;;;24.10;4.15;;;9.40;99.90;;;8.58;100.00;100667.19;4213691;28;20024;-78
2023/04/01 01:01:46;;;;;;;20.42;4.05;;;9.40;99.90;;;8.68;100.00;100675.03;4218366;28;20050;-78
2023/04/01 01:03:47;;;;;;;31.92;5.68;;;9.40;99.90;;;8.74;100.00;100675.28;4212072;28;20487;-78
2023/04/01 01:06:02;;;;;;;31.60;5.57;;;9.40;99.90;;;8.71;100.00;100672.13;4202531;28;20032;-78
2023/04/01 01:08:30;;;;;;;36.75;6.63;;;9.40;99.90;;;8.55;100.00;100678.00;4209468;28;20442;-78
2023/04/01 01:10:38;;;;;;;24.95;4.78;;;9.40;99.90;;;8.76;100.00;100673.31;4201490;28;20089;-78
2023/04/01 01:13:14;;;;;;;29.02;5.13;;;9.40;99.90;;;8.71;100.00;100678.22;4200941;28;20469;-78
2023/04/01 01:15:46;;;;;;;27.88;5.57;;;9.50;99.90;;;8.90;100.00;100683.34;4202583;28;20025;-78
2023/04/01 01:18:43;;;;;;;24.83;4.28;;;9.50;99.90;;;8.86;100.00;100689.91;4200789;28;20072;-78
2023/04/01 01:21:19;;;;;;;31.05;5.35;;;9.60;99.90;;;8.81;100.00;100680.78;4181183;28;20029;-77
2023/04/01 01:23:41;;;;;;;24.60;5.18;;;9.60;99.90;;;8.72;100.00;100665.91;4183962;28;20064;-78
2023/04/01 01:25:41;;;;;;;21.25;6.03;;;9.50;99.90;;;8.63;100.00;100682.53;4185695;28;20492;-78
2023/04/01 01:27:57;;;;;;;32.88;4.38;;;9.50;99.90;;;8.77;100.00;100679.41;4202044;28;20086;-78
2023/04/01 01:30:36;;;;;;;22.73;4.82;;;9.50;99.90;;;8.73;100.00;100680.69;4201085;28;20043;-78
2023/04/01 01:33:22;;;;;;;22.60;4.97;;;9.50;99.90;;;8.69;100.00;100674.88;4207232;28;20024;-78
2023/04/01 01:35:56;;;;;;;29.65;5.90;;;9.50;99.90;;;8.71;100.00;100678.22;4217748;28;20524;-78
2023/04/01 01:38:05;;;;;;;31.50;4.95;;;9.50;99.90;;;8.67;100.00;100676.84;4206957;28;20036;-78
2023/04/01 01:40:13;;;;;;;34.05;5.60;;;9.40;99.90;;;8.57;100.00;100670.78;4218781;28;20032;-78
2023/04/01 01:42:18;;;;;;;37.22;5.57;;;9.40;99.90;;;8.52;100.00;100662.50;4201396;28;20594;-77
2023/04/01 01:44:21;;;;;;;33.17;5.13;;;9.40;99.90;;;8.55;100.00;100662.22;4217812;28;20024;-78
2023/04/01 01:46:26;;;;;;;30.95;4.95;;;9.30;99.90;;;8.53;100.00;100665.97;4217582;28;20024;-78
2023/04/01 01:48:29;;;;;;;27.27;4.72;;;9.30;99.90;;;8.58;100.00;100672.44;4185752;28;20028;-78
2023/04/01 01:50:31;;;;;;;26.63;4.32;;;9.40;99.90;;;8.63;100.00;100666.75;4201008;28;20036;-78
2023/04/01 01:52:31;;;;;;;29.05;5.78;;;9.40;99.90;;;8.56;100.00;100668.31;4200768;28;20024;-78
2023/04/01 01:54:32;;;;;;;28.05;4.50;;;9.40;99.90;;;8.59;100.00;100674.09;4213725;28;20382;-77
2023/04/01 01:56:35;;;;;;;24.27;4.30;;;9.40;99.90;;;8.56;100.00;100669.13;4218490;28;20032;-78
2023/04/01 01:58:44;;;;;;;26.70;5.28;;;9.40;99.90;;;8.48;100.00;100671.66;4218535;28;20483;-77
2023/04/01 02:01:11;;;;;;;28.63;4.03;;;9.30;99.90;;;8.38;100.00;100667.41;4217420;28;20028;-78
2023/04/01 02:03:14;;;;;;;20.98;4.50;;;9.20;99.90;;;8.34;100.00;100674.75;4214468;28;20021;-77
2023/04/01 02:05:26;;;;;;;25.90;4.45;;;9.20;99.90;;;8.30;100.00;100674.19;4208086;28;20016;-77
2023/04/01 02:07:33;;;;;;;37.35;5.88;;;9.20;99.90;;;8.27;100.00;100660.50;4220758;28;20058;-78
2023/04/01 02:09:35;;;;;;;26.27;4.57;;;9.10;99.90;;;8.26;100.00;100671.97;4218694;28;20479;-78
2023/04/01 02:11:50;;;;;;;30.00;4.60;;;9.10;99.90;;;8.29;100.00;100672.56;4205271;28;20024;-78
2023/04/01 02:14:03;;;;;;;22.45;4.72;;;9.10;99.90;;;8.22;100.00;100665.34;4218371;28;20020;-78
2023/04/01 02:16:30;;;;;;;29.70;5.00;;;9.00;99.90;;;8.23;100.00;100672.25;4217163;28;20052;-78
2023/04/01 02:18:34;;;;;;;30.55;6.35;;;9.00;99.90;;;8.40;100.00;100673.34;4207614;28;20123;-78
2023/04/01 02:20:38;;;;;;;25.50;4.03;;;9.10;99.90;;;8.36;100.00;100678.06;4217261;28;20044;-78
2023/04/01 02:22:46;;;;;;;29.02;5.13;;;9.10;99.90;;;8.49;100.00;100677.72;4217024;28;20024;-78
2023/04/01 02:24:50;;;;;;;25.95;4.38;;;9.20;99.90;;;8.50;100.00;100672.34;4217241;28;20047;-78
2023/04/01 02:26:52;;;;;;;22.85;4.07;;;9.20;99.90;;;8.45;100.00;100677.22;4217240;28;20090;-77
2023/04/01 02:28:54;;;;;;;19.35;4.32;;;9.20;99.90;;;8.43;100.00;100673.03;4200244;28;20048;-78
2023/04/01 02:30:57;;;;;;;23.42;4.30;;;9.20;99.90;;;8.50;100.00;100669.72;4213691;28;20031;-78
2023/04/01 02:32:59;;;;;;;17.20;3.80;;;9.20;99.90;;;8.56;100.00;100669.13;4200491;28;20494;-78
2023/04/01 02:35:03;;;;;;;22.38;4.93;;;9.30;99.90;;;8.54;100.00;100665.81;4201025;28;20032;-78
2023/04/01 02:37:04;;;;;;;22.10;4.55;;;9.30;99.90;;;8.53;100.00;100671.22;4203776;28;20032;-78
2023/04/01 02:39:06;;;;;;;20.98;4.03;;;9.30;99.90;;;8.50;100.00;100663.63;4221583;28;20032;-78
2023/04/01 02:41:07;;;;;;;25.40;2.95;;;9.30;99.90;;;8.49;100.00;100657.53;4220439;28;20024;-78
2023/04/01 02:43:08;;;;;;;17.30;2.83;;;9.30;99.90;;;8.49;100.00;100651.44;4221341;28;20491;-78
2023/04/01 02:45:10;;;;;;;22.83;4.93;;;9.20;99.90;;;8.65;100.00;100655.13;4220233;28;20119;-78
2023/04/01 02:47:11;;;;;;;16.40;3.10;;;9.30;99.90;;;8.50;100.00;100653.94;4221500;28;20031;-78
2023/04/01 02:49:12;;;;;;;18.08;3.30;;;9.30;99.90;;;8.44;100.00;100659.78;4221663;28;20035;-78
2023/04/01 02:51:13;;;;;;;13.25;2.70;;;9.30;99.90;;;8.37;100.00;100663.09;4220257;28;20035;-77
2023/04/01 02:53:14;;;;;;;20.65;3.40;;;9.20;99.90;;;8.28;100.00;100662.16;4221293;28;20487;-78
2023/04/01 02:55:15;;;;;;;17.23;2.90;;;9.10;99.90;;;8.38;100.00;100668.22;4203269;28;20024;-78
2023/04/01 02:57:16;;;;;;;20.20;3.50;;;9.10;99.90;;;8.28;100.00;100670.06;4221190;28;20063;-78
2023/04/01 02:59:17;;;;;;;15.63;3.20;;;9.10;99.90;;;8.37;100.00;100679.72;4219896;28;20380;-78
2023/04/01 03:01:18;;;;;;;15.60;3.47;;;9.10;99.90;;;8.40;100.00;100675.97;4221103;28;20391;-78
2023/04/01 03:03:19;;;;;;;13.20;2.53;;;9.10;99.90;;;8.40;100.00;100679.41;4219989;28;20070;-78
2023/04/01 03:05:20;;;;;;;13.77;2.60;;;9.20;99.90;;;8.32;100.00;100677.53;4220196;28;20035;-78
2023/04/01 03:07:21;;;;;;;16.65;4.00;;;9.10;99.90;;;8.31;100.00;100680.28;4221689;28;20500;-78
2023/04/01 03:09:22;;;;;;;22.45;3.10;;;9.10;99.90;;;8.26;100.00;100674.59;4207264;28;20057;-77
2023/04/01 03:11:23;;;;;;;15.40;4.75;;;9.10;99.90;;;8.32;100.00;100674.06;4207811;28;20081;-78
2023/04/01 03:13:24;;;;;;;23.67;3.22;;;9.10;99.90;;;8.48;100.00;100671.66;4219741;28;20028;-78
2023/04/01 03:15:25;;;;;;;18.05;3.80;;;9.10;99.90;;;8.44;100.00;100674.72;4221014;28;20024;-78
2023/04/01 03:17:26;;;;;;;14.27;3.20;;;9.20;99.90;;;8.49;100.00;100680.34;4219625;28;20052;-78
2023/04/01 03:19:26;;;;;;;19.33;2.90;;;9.10;99.90;;;8.48;100.00;100683.97;4219819;28;20024;-78
2023/04/01 03:21:27;;;;;;;23.88;4.45;;;9.20;99.90;;;8.37;100.00;100677.09;4223109;28;20514;-78
2023/04/01 03:23:28;;;;;;;17.60;3.30;;;9.20;99.90;;;8.24;100.00;100668.66;4216997;28;20021;-77
2023/04/01 03:25:30;;;;;;;20.90;4.43;;;9.10;99.90;;;8.37;100.00;100674.44;4215943;28;20379;-77
2023/04/01 03:27:31;;;;;;;18.33;2.70;;;9.10;99.90;;;8.27;100.00;100669.22;4220645;28;20099;-78
2023/04/01 03:29:32;;;;;;;20.63;2.75;;;9.10;99.90;;;8.26;100.00;100674.59;4220842;28;20024;-78
2023/04/01 03:31:34;;;;;;;18.65;3.78;;;9.10;99.90;;;8.33;100.00;100678.34;4220952;28;20021;-77
2023/04/01 03:33:35;;;;;;;22.58;2.97;;;9.10;99.90;;;8.30;100.00;100683.91;4219561;28;20023;-78
2023/04/01 03:35:36;;;;;;;15.77;3.65;;;9.10;99.90;;;8.20;100.00;100681.25;4220532;28;20028;-78
2023/04/01 03:37:37;;;;;;;17.10;2.40;;;9.00;99.90;;;8.07;100.00;100677.25;4220846;28;20055;-77
2023/04/01 03:39:38;;;;;;;18.80;4.43;;;8.90;99.90;;;7.99;100.00;100685.03;4219425;28;20107;-78
2023/04/01 03:41:39;;;;;;;14.57;2.65;;;8.90;99.90;;;7.98;100.00;100691.25;4219386;28;20454;-78
2023/04/01 03:43:40;;;;;;;21.48;4.53;;;8.80;99.90;;;8.00;100.00;100691.94;4220238;28;20096;-78
2023/04/01 03:45:51;;;;;;;22.50;4.18;;;8.80;99.90;;;8.06;100.00;100692.22;4202566;28;20029;-78
2023/04/01 03:47:52;;;;;;;22.38;2.85;;;8.80;99.90;;;7.94;100.00;100698.59;4201830;28;20368;-77
2023/04/01 03:49:53;;;;;;;10.75;2.75;;;8.80;99.90;;;7.86;100.00;100695.81;4207418;28;20036;-77
2023/04/01 03:51:54;;;;;;;25.35;5.32;;;8.70;99.90;;;7.87;100.00;100699.28;4203527;28;20033;-78
2023/04/01 03:53:55;;;;;;;18.25;3.92;;;8.70;99.90;;;7.82;100.00;100707.59;4203726;28;20025;-78
2023/04/01 03:55:56;;;;;;;20.73;4.15;;;8.70;99.90;;;7.72;100.00;100697.09;4203725;28;20028;-78
2023/04/01 03:57:57;;;;;;;23.20;4.55;;;8.60;99.90;;;7.75;100.00;100695.97;4205558;28;20461;-78
2023/04/01 03:59:57;;;;;;;21.45;4.15;;;8.60;99.90;;;7.83;100.00;100701.34;4202781;28;20037;-78
2023/04/01 04:01:58;;;;;;;28.33;5.20;;;8.60;99.90;;;7.85;100.00;100699.44;4209436;28;20023;-78
2023/04/01 04:04:00;;;;;;;20.85;3.67;;;8.70;99.90;;;7.86;100.00;100706.31;4219143;28;20028;-77
2023/04/01 04:06:01;;;;;;;19.45;3.75;;;8.70;99.90;;;7.87;100.00;100708.00;4219012;28;20111;-78
2023/04/01 04:08:02;;;;;;;27.33;6.28;;;8.70;99.90;;;8.01;100.00;100710.19;4218634;28;20036;-78
2023/04/01 04:10:04;;;;;;;22.05;4.15;;;8.80;99.90;;;8.00;100.00;100705.91;4203511;28;20036;-78
2023/04/01 04:12:06;;;;;;;19.45;3.60;;;8.80;99.90;;;7.93;100.00;100703.97;4203189;28;20020;-78
2023/04/01 04:14:07;;;;;;;21.92;3.75;;;8.80;99.90;;;7.89;100.00;100705.22;4203314;28;20032;-78
2023/04/01 04:16:09;;;;;;;15.80;4.05;;;8.70;99.90;;;7.92;100.00;100700.50;4203223;28;20036;-78
2023/04/01 04:18:10;;;;;;;25.58;5.25;;;8.70;99.90;;;7.87;100.00;100697.50;4207018;28;20032;-78
2023/04/01 04:20:11;;;;;;;22.90;4.68;;;8.70;99.90;;;7.86;100.00;100705.50;4210757;28;20013;-77
2023/04/01 04:22:12;;;;;;;20.38;3.17;;;8.70;99.90;;;7.82;100.00;100711.03;4203240;28;20025;-77
2023/04/01 04:24:13;;;;;;;18.35;3.45;;;8.60;99.90;;;7.83;100.00;100706.59;4202986;28;20510;-78
2023/04/01 04:26:15;;;;;;;23.45;4.03;;;8.60;99.90;;;7.87;100.00;100712.41;4203885;28;20025;-78
2023/04/01 04:28:16;;;;;;;28.88;3.60;;;8.60;99.90;;;7.85;100.00;100709.09;4209341;28;20025;-78
2023/04/01 04:30:17;;;;;;;23.42;3.58;;;8.70;99.90;;;7.82;100.00;100709.38;4203017;28;20028;-78
2023/04/01 04:32:18;;;;;;;32.00;5.43;;;8.60;99.90;;;7.84;100.00;100712.69;4204399;28;20032;-78
2023/04/01 04:34:19;;;;;;;24.23;3.65;;;8.60;99.90;;;7.78;100.00;100703.56;4208627;28;20028;-77
2023/04/01 04:36:21;;;;;;;26.40;5.05;;;8.60;99.90;;;7.77;100.00;100708.00;4220054;28;20024;-78
2023/04/01 04:38:21;;;;;;;20.60;3.25;;;8.60;99.90;;;7.75;100.00;100712.56;4218243;28;20035;-78
2023/04/01 04:40:22;;;;;;;21.00;3.00;;;8.60;99.90;;;7.74;100.00;100713.53;4219296;28;20024;-78
2023/04/01 04:42:23;;;;;;;33.60;4.55;;;8.60;99.90;;;7.66;100.00;100708.13;4202738;28;20550;-78
2023/04/01 04:44:24;;;;;;;17.13;2.63;;;8.50;99.90;;;7.64;100.00;100707.47;4202892;28;20170;-78
2023/04/01 04:46:25;;;;;;;29.30;5.07;;;8.50;99.90;;;7.77;100.00;100712.41;4202832;28;20025;-78
2023/04/01 04:48:26;;;;;;;27.02;4.22;;;8.50;99.90;;;7.65;100.00;100714.34;4212145;28;20053;-78
2023/04/01 04:50:27;;;;;;;19.45;4.93;;;8.50;99.90;;;7.69;100.00;100715.75;4201747;28;20044;-78
2023/04/01 04:52:28;;;;;;;23.23;3.80;;;8.50;99.90;;;7.65;100.00;100714.34;4202733;28;20025;-78
2023/04/01 04:54:29;;;;;;;19.05;4.00;;;8.50;99.90;;;7.55;100.00;100707.44;4202721;28;20032;-78
2023/04/01 04:56:31;;;;;;;19.60;3.17;;;8.40;99.90;;;7.55;100.00;100712.69;4202481;28;20099;-77
2023/04/01 04:58:31;;;;;;;18.38;3.13;;;8.40;99.90;;;7.54;100.00;100701.38;4202382;28;20060;-78
2023/04/01 05:00:32;;;;;;;25.60;4.95;;;8.40;99.90;;;7.50;100.00;100705.22;4211357;28;20024;-77
2023/04/01 05:02:34;;;;;;;17.55;4.38;;;8.30;99.90;;;7.43;100.00;100706.75;4218057;28;20035;-78
2023/04/01 05:04:36;;;;;;;20.50;3.60;;;8.30;99.90;;;7.40;100.00;100698.31;4217122;28;20103;-78
2023/04/01 05:06:37;;;;;;;16.98;2.88;;;8.30;99.90;;;7.41;100.00;100721.78;4201537;28;20028;-78
2023/04/01 05:08:40;;;;;;;16.60;3.08;;;8.20;99.90;;;7.36;100.00;100721.38;4209509;28;20100;-78
2023/04/01 05:10:41;;;;;;;24.63;3.60;;;8.20;99.90;;;7.32;100.00;100719.97;4202421;28;20503;-78
2023/04/01 05:12:41;;;;;;;19.15;3.55;;;8.20;99.90;;;7.28;100.00;100712.53;4202025;28;20074;-77
2023/04/01 05:14:42;;;;;;;18.77;3.88;;;8.10;99.90;;;7.24;100.00;100707.53;4202482;28;20025;-77
2023/04/01 05:16:43;;;;;;;21.75;3.80;;;8.10;99.90;;;7.24;100.00;100723.28;4200943;28;20102;-78
2023/04/01 05:18:44;;;;;;;19.17;4.28;;;8.10;99.90;;;7.23;100.00;100712.91;4219757;28;20027;-78
2023/04/01 05:20:51;;;;;;;19.20;4.57;;;8.10;99.90;;;7.29;100.00;100716.81;4206072;28;20526;-77
2023/04/01 05:22:57;;;;;;;19.17;4.22;;;8.10;99.90;;;7.38;100.00;100713.38;4205900;28;20028;-78
2023/04/01 05:24:57;;;;;;;25.83;4.70;;;8.20;99.90;;;7.49;100.00;100713.25;4217977;28;20080;-77
2023/04/01 05:26:59;;;;;;;21.90;3.78;;;8.30;99.90;;;7.56;100.00;100704.66;4218941;28;20016;-78
2023/04/01 05:29:00;;;;;;;20.13;4.57;;;8.40;99.90;;;7.67;100.00;100699.31;4215331;28;20031;-77
2023/04/01 05:31:02;;;;;;;19.80;4.25;;;8.50;99.90;;;7.69;100.00;100692.13;4217946;28;20382;-78
2023/04/01 05:33:03;;;;;;;16.58;3.97;;;8.50;99.90;;;7.73;100.00;100700.53;4200972;28;20063;-78
2023/04/01 05:35:05;;;;;;;17.90;3.95;;;8.60;99.90;;;7.69;100.00;100700.00;4214160;28;20035;-78
2023/04/01 05:37:07;;;;;;;18.77;3.72;;;8.60;99.90;;;7.68;100.00;100708.81;4217471;28;20077;-78
2023/04/01 05:39:08;;;;;;;21.17;4.03;;;8.60;99.90;;;7.60;100.00;100707.84;4222427;28;20032;-78
2023/04/01 05:41:09;;;;;;;22.40;3.20;;;8.50;99.90;;;7.55;100.00;100702.19;4201977;28;20025;-78
2023/04/01 05:43:10;;;;;;;26.30;4.28;;;8.40;99.90;;;7.50;100.00;100705.22;4201683;28;20020;-78
2023/04/01 05:45:11;;;;;;;22.08;4.32;;;8.30;99.90;;;7.45;100.00;100712.69;4201824;28;20024;-77
2023/04/01 05:47:12;;;;;;;26.52;3.92;;;8.30;99.90;;;7.40;100.00;100712.28;4201916;28;20035;-78
2023/04/01 05:49:13;;;;;;;16.88;3.53;;;8.30;99.90;;;7.40;100.00;100719.31;4204332;28;20029;-78
2023/04/01 05:51:15;;;;;;;28.35;4.93;;;8.30;99.90;;;7.39;100.00;100728.13;4212533;28;20024;-78
2023/04/01 05:53:16;;;;;;;21.50;4.05;;;8.20;99.90;;;7.41;100.00;100721.78;4217314;28;20028;-78
2023/04/01 05:55:17;;;;;;;15.57;3.20;;;8.20;99.90;;;7.36;100.00;100724.00;4212454;28;20071;-78
2023/04/01 05:57:17;;;;;;;23.77;4.57;;;8.20;99.90;;;7.36;100.00;100728.41;4208676;28;20059;-78
2023/04/01 05:59:18;;;;;;;25.05;3.97;;;8.10;99.90;;;7.36;100.00;100718.75;4208357;28;20095;-78
2023/04/01 06:01:19;;;;;;;22.60;4.95;;;8.20;99.90;;;7.35;100.00;100716.28;4202139;28;20036;-77
2023/04/01 06:03:20;;;;;;;25.95;4.95;;;8.20;99.90;;;7.34;100.00;100715.44;4217543;28;20470;-78
2023/04/01 06:05:25;;;;;;;18.20;3.33;;;8.20;99.90;;;7.39;100.00;100715.84;4217405;28;20050;-78
2023/04/01 06:07:28;;;;;;;23.88;4.65;;;8.20;99.90;;;7.41;100.00;100724.41;4219017;28;20085;-77
2023/04/01 06:09:30;;;;;;;23.05;3.85;;;8.20;99.90;;;7.37;100.00;100720.41;4182527;28;20048;-78
2023/04/01 06:11:40;;;;;;;25.63;4.03;;;8.20;99.90;;;7.39;100.00;100723.72;4172820;28;20587;-78
2023/04/01 06:14:04;;;;;;;17.02;3.75;;;8.20;99.90;;;7.45;100.00;100720.56;4184933;28;20082;-77
2023/04/01 06:16:59;;;;;;;21.02;4.03;;;8.20;99.90;;;7.44;100.00;100733.81;4185203;28;20049;-78
2023/04/01 06:19:33;;;;;;;28.95;4.18;;;8.30;99.90;;;7.48;100.00;100730.78;4185049;28;20033;-78
2023/04/01 06:22:04;;;;;;;24.52;3.40;;;8.20;99.90;;;7.45;100.00;100736.31;4168732;28;20028;-78
2023/04/01 06:24:31;;;;;;;22.55;3.70;;;8.20;99.90;;;7.46;100.00;100734.50;4172387;28;20022;-78
2023/04/01 06:26:57;;;;;;;21.52;3.60;;;8.20;99.90;;;7.47;100.00;100731.75;4168490;28;20030;-78
2023/04/01 06:29:27;;;;;;;19.08;3.83;;;8.20;99.90;;;7.49;100.00;100734.25;4174232;28;20103;-78
2023/04/01 06:31:33;;;;;;;24.83;4.28;;;8.30;99.90;;;7.56;100.00;100744.03;4167219;28;20134;-78
2023/04/01 06:33:56;;;;;;;21.17;3.85;;;8.30;99.90;;;7.51;100.00;100735.75;4178861;28;20025;-78
2023/04/01 06:36:10;;;;;;;23.92;3.80;;;8.30;99.90;;;7.57;100.00;100744.88;4184007;28;20025;-77
2023/04/01 06:38:47;;;;;;;31.55;4.22;;;8.30;99.90;;;7.60;100.00;100748.06;4178781;28;20024;-78
2023/04/01 06:41:29;;;;;;;24.67;4.18;;;8.40;99.90;;;7.64;100.00;100744.22;4168659;28;20033;-78
2023/04/01 06:44:19;;;;;;;20.10;3.75;;;8.40;99.90;;;7.66;100.00;100742.28;4167718;28;20039;-78
2023/04/01 06:46:59;;;;;;;29.88;4.40;;;8.50;99.90;;;7.71;100.00;100740.06;4153970;28;20053;-78
2023/04/01 06:49:14;;;;;;;25.85;4.20;;;8.50;99.90;;;7.87;100.00;100739.50;4162088;28;20034;-77
2023/04/01 06:51:27;;;;;;;21.83;4.10;;;8.60;99.90;;;7.94;100.00;100735.38;4168402;28;20029;-77
2023/04/01 06:54:06;;;;;;;25.48;4.15;;;8.70;99.90;;;8.00;100.00;100739.22;4166473;28;20038;-77
2023/04/01 06:56:11;;;;;;;28.98;5.13;;;8.80;99.90;;;8.07;100.00;100729.81;4179289;28;20036;-78
2023/04/01 06:58:22;;;;;;;29.80;5.32;;;8.80;99.90;;;8.17;100.00;100725.38;4181717;28;20033;-77
2023/04/01 07:00:32;;;;;;;27.60;3.33;;;8.90;99.90;;;8.21;100.00;100732.81;4167160;28;20535;-77
2023/04/01 07:02:53;;;;;;;19.98;4.38;;;8.90;99.90;;;8.22;100.00;100729.25;4177922;28;20021;-77
2023/04/01 07:04:57;;;;;;;14.30;3.60;;;9.00;99.90;;;8.28;100.00;100728.69;4183676;28;20025;-78
2023/04/01 07:07:16;;;;;;;20.08;4.10;;;9.00;99.90;;;8.41;100.00;100733.66;4183690;28;20063;-77
2023/04/01 07:09:26;;;;;;;20.13;3.25;;;9.10;99.90;;;8.49;100.00;100732.94;4210483;28;20086;-77
2023/04/01 07:11:33;;;;;;;22.85;4.45;;;9.20;99.90;;;8.50;100.00;100719.66;4212826;28;20504;-77
2023/04/01 07:14:06;;;;;;;21.83;4.10;;;9.30;99.90;;;8.58;100.00;100730.28;4191400;28;20040;-77
2023/04/01 07:16:11;;;;;;;18.08;3.78;;;9.30;99.90;;;8.66;100.00;100727.75;4191048;28;20446;-78
2023/04/01 07:18:23;;;;;;;29.05;4.80;;;9.40;99.90;;;8.78;100.00;100734.50;4205834;28;20032;-78
2023/04/01 07:20:35;;;;;;;15.18;3.00;;;9.50;99.90;;;8.94;100.00;100730.41;4211446;28;20035;-77
2023/04/01 07:22:50;;;;;;;20.88;3.33;;;9.60;99.90;;;9.17;100.00;100729.06;4201395;28;20066;-78
2023/04/01 07:24:53;;;;;;;23.45;3.60;;;9.90;99.90;;;9.51;100.00;100722.19;4235063;27;20033;-77
2023/04/01 07:26:56;;;;;;;16.45;3.15;;;10.20;99.90;;;9.89;100.00;100719.25;4213050;28;20028;-78
2023/04/01 07:28:57;;;;;;;20.00;4.55;;;10.50;99.90;;;10.06;100.00;100716.75;4209582;28;20028;-78
2023/04/01 07:31:17;;;;;;;19.42;3.63;;;10.70;99.90;;;10.23;100.00;100710.63;4203119;28;20036;-78
2023/04/01 07:33:54;;;;;;;20.83;3.53;;;10.80;99.90;;;10.15;100.00;100706.16;4198190;28;20640;-78
2023/04/01 07:36:31;;;;;;;18.23;3.85;;;10.90;99.90;;;10.18;100.00;100702.38;4214163;28;20040;-78
2023/04/01 07:39:10;;;;;;;16.05;4.70;;;10.90;99.90;;;10.29;100.00;100696.84;4207711;28;20016;-78
2023/04/01 07:41:53;;;;;;;18.52;3.15;;;10.90;99.90;;;10.18;100.00;100700.56;4203967;28;20028;-79
2023/04/01 07:44:10;;;;;;;21.10;3.58;;;10.90;99.90;;;10.12;100.00;100695.88;4174524;28;20032;-78
2023/04/01 07:47:08;;;;;;;23.75;4.10;;;10.90;99.90;;;10.11;100.00;100698.66;4202755;28;20078;-79
2023/04/01 07:49:33;;;;;;;19.98;3.42;;;10.80;99.90;;;10.06;100.00;100687.75;4172317;28;20033;-78
2023/04/01 07:52:06;;;;;;;22.23;3.95;;;10.90;99.90;;;10.17;100.00;100684.88;4166675;28;20045;-78
2023/04/01 07:54:28;;;;;;;16.85;2.92;;;10.90;99.90;;;10.29;100.00;100694.19;4188543;28;20028;-78
2023/04/01 07:56:53;;;;;;;16.00;4.43;;;11.00;99.90;;;10.30;100.00;100690.59;4202488;28;20473;-78
2023/04/01 07:59:09;;;;;;;16.63;2.55;;;11.10;99.90;;;10.40;100.00;100688.66;4188116;28;20039;-78
2023/04/01 08:01:18;;;;;;;20.40;4.10;;;11.20;99.90;;;10.50;100.00;100681.47;4209821;28;20471;-78
2023/04/01 08:03:28;;;;;;;17.92;4.05;;;11.20;99.90;;;10.47;100.00;100682.63;4203656;28;20024;-78
2023/04/01 08:05:45;;;;;;;16.00;3.67;;;11.20;99.90;;;10.53;100.00;100689.06;4203633;28;20031;-78
2023/04/01 08:08:19;;;;;;;16.58;2.80;;;11.20;99.90;;;10.50;100.00;100687.56;4213925;28;20059;-78
2023/04/01 08:10:29;;;;;;;15.05;3.20;;;11.30;99.90;;;10.58;100.00;100686.78;4217730;28;20028;-78
2023/04/01 08:12:50;;;;;;;18.80;3.55;;;11.40;99.90;;;10.69;100.00;100686.53;4215117;28;20031;-78
2023/04/01 08:15:00;;;;;;;21.58;5.20;;;11.40;99.90;;;10.87;100.00;100697.78;4218765;28;20032;-78
2023/04/01 08:17:38;;;;;;;19.08;3.45;;;11.50;99.90;;;11.05;100.00;100695.06;4220109;28;20032;-79
2023/04/01 08:19:56;;;;;;;11.85;3.20;;;11.60;99.90;;;11.08;100.00;100689.44;4219849;28;20453;-79
2023/04/01 08:22:04;;;;;;;13.18;3.00;;;11.70;99.90;;;10.96;100.00;100691.56;4208048;28;20053;-78
2023/04/01 08:24:48;;;;;;;14.38;2.47;;;11.70;99.90;;;10.96;100.00;100693.41;4216891;28;20438;-79
2023/04/01 08:26:55;;;;;;;14.77;3.40;;;11.70;99.90;;;10.85;100.00;100691.84;4218319;28;20067;-79
2023/04/01 08:29:07;;;;;;;16.38;3.20;;;11.60;99.90;;;10.76;100.00;100702.53;4201986;28;20159;-79
2023/04/01 08:31:26;;;;;;;15.15;3.25;;;11.50;99.90;;;10.61;100.00;100693.53;4218692;28;20020;-78
2023/04/01 08:33:30;;;;;;;13.30;3.13;;;11.50;99.90;;;10.69;100.00;100697.06;4216713;28;20029;-78
2023/04/01 08:35:40;;;;;;;17.70;3.20;;;11.50;99.90;;;10.79;100.00;100708.31;4202893;28;20499;-79
2023/04/01 08:37:41;;;;;;;13.48;2.72;;;11.50;99.90;;;11.02;100.00;100711.22;4201875;28;20024;-78
2023/04/01 08:40:12;;;;;;;13.27;2.67;;;11.70;99.90;;;11.20;100.00;100708.50;4205636;28;20104;-78
2023/04/01 08:42:56;;;;;;;16.95;3.15;;;11.90;99.90;;;11.47;100.00;100721.41;4171478;28;20400;-78
2023/04/01 08:45:30;;;;;;;11.93;2.20;;;12.10;99.90;;;11.69;100.00;100712.84;4201772;28;20028;-78
2023/04/01 08:47:30;;;;;;;12.15;2.45;;;12.30;99.90;;;11.92;100.00;100713.06;4202491;28;20546;-78
2023/04/01 08:50:02;;;;;;;16.48;2.85;;;12.50;99.90;;;11.90;100.00;100715.03;4206208;28;20021;-79
2023/04/01 08:52:48;;;;;;;9.88;2.13;;;12.60;99.90;;;12.02;100.00;100719.84;4207115;28;20032;-79
2023/04/01 08:55:14;;;;;;;9.18;2.67;;;12.70;99.90;;;12.09;100.00;100717.38;4173982;28;20043;-80
2023/04/01 08:57:39;;;;;;;12.32;2.40;;;12.80;99.90;;;12.08;100.00;100713.06;4202494;28;20034;-79